Time;durP1;ratioP1;P1;durP2;ratioP2;P2;SDS_P1;SDS_P2;PMS_P1;PMS_P2;Temp;Humidity;BMP_temperature;BMP_pressure;BME280_temperature;BME280_humidity;BME280_pressure;Samples;Min_cycle;Max_cycle;Signal;HPM_P1;HPM_P2
2024/05/01 00:02:18;;;;;;;;;;;12.50;99.90;;;;;;5362879;26;19929;-65
2024/05/01 00:04:43;;;;;;;;;;;12.60;99.90;;;;;;5353458;26;19941;-65
2024/05/01 00:07:09;;;;;;;;;;;12.80;99.90;;;;;;5358665;26;19941;-66
2024/05/01 00:09:35;;;;;;;;;;;12.70;99.90;;;;;;5347385;26;19934;-66
2024/05/01 00:12:01;;;;;;;;;;;12.70;99.90;;;;;;5363723;26;19999;-66
2024/05/01 00:14:26;;;;;;;;;;;12.80;99.90;;;;;;5330807;26;19930;-66
2024/05/01 00:16:53;;;;;;;;;;;12.80;99.90;;;;;;5327915;26;19942;-66
2024/05/01 00:19:19;;;;;;;;;;;12.90;99.90;;;;;;5371600;26;19940;-66
2024/05/01 00:21:44;;;;;;;;;;;12.90;99.90;;;;;;5371139;26;19938;-65
2024/05/01 00:24:10;;;;;;;;;;;12.90;99.90;;;;;;5365093;26;19937;-65
2024/05/01 00:26:35;;;;;;;;;;;12.90;99.90;;;;;;5355221;26;19934;-66
2024/05/01 00:29:01;;;;;;;;;;;12.90;99.90;;;;;;5353082;26;19937;-66
2024/05/01 00:31:27;;;;;;;;;;;12.90;99.90;;;;;;5373741;26;19930;-65
2024/05/01 00:33:52;;;;;;;;;;;12.80;99.90;;;;;;5359064;26;19945;-65
2024/05/01 00:36:18;;;;;;;;;;;12.80;99.90;;;;;;5368216;26;19952;-65
2024/05/01 00:38:43;;;;;;;;;;;12.70;99.90;;;;;;5361573;26;20008;-65
2024/05/01 00:41:09;;;;;;;;;;;12.70;99.90;;;;;;5375369;26;20389;-65
2024/05/01 00:43:35;;;;;;;;;;;12.70;99.90;;;;;;5361338;26;19937;-65
2024/05/01 00:46:00;;;;;;;;;;;12.70;99.90;;;;;;5357359;26;19937;-65
2024/05/01 00:48:26;;;;;;;;;;;12.70;99.90;;;;;;5344458;26;20332;-65
2024/05/01 00:50:52;;;;;;;;;;;12.70;99.90;;;;;;5357359;26;19930;-65
2024/05/01 00:53:18;;;;;;;;;;;12.80;99.90;;;;;;5355325;26;19938;-65
2024/05/01 00:55:44;;;;;;;;;;;12.70;99.90;;;;;;5343920;26;19937;-66
2024/05/01 00:58:10;;;;;;;;;;;13.30;99.90;;;;;;5368659;26;19930;-66
2024/05/01 01:00:36;;;;;;;;;;;12.80;99.90;;;;;;5372286;26;20273;-66
2024/05/01 01:03:01;;;;;;;;;;;12.70;99.90;;;;;;5361082;26;19937;-65
2024/05/01 01:05:27;;;;;;;;;;;12.70;99.90;;;;;;5363185;26;19949;-65
2024/05/01 01:07:53;;;;;;;;;;;12.70;99.90;;;;;;5356917;26;20335;-65
2024/05/01 01:10:18;;;;;;;;;;;12.70;99.90;;;;;;5351223;26;19934;-65
2024/05/01 01:12:44;;;;;;;;;;;12.70;99.90;;;;;;5355874;26;19938;-65
2024/05/01 01:15:09;;;;;;;;;;;12.70;99.90;;;;;;5363552;26;19940;-66
2024/05/01 01:17:36;;;;;;;;;;;12.70;99.90;;;;;;5371308;26;19929;-66
2024/05/01 01:20:02;;;;;;;;;;;12.70;99.90;;;;;;5367942;26;19930;-66
2024/05/01 01:22:28;;;;;;;;;;;12.70;99.90;;;;;;5357445;26;19930;-66
2024/05/01 01:24:54;;;;;;;;;;;13.20;99.90;;;;;;5355200;26;19937;-66
2024/05/01 01:27:19;;;;;;;;;;;12.70;99.90;;;;;;5364428;26;20388;-66
2024/05/01 01:29:45;;;;;;;;;;;13.30;99.90;;;;;;5351181;26;19929;-66
2024/05/01 01:32:10;;;;;;;;;;;12.70;99.90;;;;;;5363964;26;19930;-65
2024/05/01 01:34:36;;;;;;;;;;;12.60;99.90;;;;;;5375679;26;19930;-66
2024/05/01 01:37:02;;;;;;;;;;;12.70;99.90;;;;;;5357118;26;19938;-66
2024/05/01 01:39:27;;;;;;;;;;;12.60;99.90;;;;;;5339529;26;20237;-66
2024/05/01 01:41:53;;;;;;;;;;;12.70;99.90;;;;;;5374821;26;19936;-66
2024/05/01 01:44:19;;;;;;;;;;;12.60;99.90;;;;;;5373925;26;19929;-66
2024/05/01 01:46:44;;;;;;;;;;;12.60;99.90;;;;;;5365500;26;19930;-65
2024/05/01 01:49:10;;;;;;;;;;;12.60;99.90;;;;;;5366897;26;19936;-66
2024/05/01 01:51:36;;;;;;;;;;;12.50;99.90;;;;;;5368161;26;19929;-66
2024/05/01 01:54:02;;;;;;;;;;;12.40;99.90;;;;;;5337467;26;19941;-66
2024/05/01 01:56:28;;;;;;;;;;;12.40;99.90;;;;;;5365432;26;20377;-66
2024/05/01 01:58:53;;;;;;;;;;;12.40;99.90;;;;;;5364617;26;19930;-66
2024/05/01 02:01:19;;;;;;;;;;;12.40;99.90;;;;;;5375531;26;19929;-66
2024/05/01 02:03:50;;;;;;;;;;;12.40;99.90;;;;;;5353105;26;19957;-66
2024/05/01 02:06:16;;;;;;;;;;;12.50;99.90;;;;;;5380315;26;20274;-65
2024/05/01 02:08:42;;;;;;;;;;;12.40;99.90;;;;;;5355557;26;20013;-65
2024/05/01 02:11:07;;;;;;;;;;;12.50;99.90;;;;;;5367611;26;19943;-65
2024/05/01 02:13:33;;;;;;;;;;;13.10;99.90;;;;;;5361022;26;19961;-65
2024/05/01 02:15:59;;;;;;;;;;;12.60;99.90;;;;;;5356725;26;19941;-65
2024/05/01 02:18:25;;;;;;;;;;;12.60;99.90;;;;;;5361447;26;20320;-65
2024/05/01 02:20:50;;;;;;;;;;;13.30;99.90;;;;;;5345790;26;19930;-65
2024/05/01 02:23:16;;;;;;;;;;;12.70;99.90;;;;;;5361652;26;19937;-65
2024/05/01 02:25:42;;;;;;;;;;;12.60;99.90;;;;;;5356588;26;20378;-66
2024/05/01 02:28:10;;;;;;;;;;;12.60;99.90;;;;;;5354862;26;19966;-65
2024/05/01 02:30:36;;;;;;;;;;;12.60;99.90;;;;;;5362870;26;19930;-65
2024/05/01 02:33:02;;;;;;;;;;;12.60;99.90;;;;;;5357142;26;19936;-65
2024/05/01 02:35:27;;;;;;;;;;;12.50;99.90;;;;;;5363519;26;19934;-65
2024/05/01 02:37:53;;;;;;;;;;;13.20;99.90;;;;;;5373377;26;19929;-65
2024/05/01 02:40:18;;;;;;;;;;;12.50;99.90;;;;;;5349190;26;19996;-66
2024/05/01 02:42:44;;;;;;;;;;;12.50;99.90;;;;;;5358592;26;19937;-65
2024/05/01 02:45:10;;;;;;;;;;;12.50;99.90;;;;;;5355482;26;19936;-65
2024/05/01 02:47:35;;;;;;;;;;;12.60;99.90;;;;;;5357135;26;20436;-65
2024/05/01 02:50:01;;;;;;;;;;;12.50;99.90;;;;;;5346679;26;19930;-65
2024/05/01 02:52:26;;;;;;;;;;;12.50;99.90;;;;;;5357573;26;20000;-65
2024/05/01 02:54:53;;;;;;;;;;;12.60;99.90;;;;;;5346556;26;19929;-65
2024/05/01 02:57:18;;;;;;;;;;;12.50;99.90;;;;;;5358514;26;20000;-65
2024/05/01 02:59:44;;;;;;;;;;;12.80;99.90;;;;;;5363089;26;19934;-65
2024/05/01 03:02:10;;;;;;;;;;;12.40;99.90;;;;;;5362988;26;20258;-65
2024/05/01 03:04:38;;;;;;;;;;;12.40;99.90;;;;;;5369397;26;19938;-65
2024/05/01 03:07:14;;;;;;;;;;;12.40;99.90;;;;;;5359022;26;20370;-65
2024/05/01 03:09:41;;;;;;;;;;;12.40;99.90;;;;;;5343710;26;19938;-66
2024/05/01 03:12:06;;;;;;;;;;;12.30;99.90;;;;;;5361879;26;19998;-65
2024/05/01 03:14:32;;;;;;;;;;;12.30;99.90;;;;;;5357975;26;19957;-65
2024/05/01 03:16:58;;;;;;;;;;;12.20;99.90;;;;;;5354737;26;20475;-65
2024/05/01 03:19:24;;;;;;;;;;;12.20;99.90;;;;;;5353767;26;19969;-66
2024/05/01 03:21:50;;;;;;;;;;;12.20;99.90;;;;;;5367887;26;19929;-65
2024/05/01 03:24:15;;;;;;;;;;;12.10;99.90;;;;;;5318266;26;19930;-65
2024/05/01 03:26:41;;;;;;;;;;;12.20;99.90;;;;;;5355489;26;20199;-65
2024/05/01 03:29:07;;;;;;;;;;;12.20;99.90;;;;;;5360107;26;20006;-66
2024/05/01 03:31:52;;;;;;;;;;;12.20;99.90;;;;;;5311988;26;19938;-65
2024/05/01 03:34:18;;;;;;;;;;;12.10;99.90;;;;;;5364839;26;19930;-66
2024/05/01 03:36:43;;;;;;;;;;;12.10;99.90;;;;;;5364783;26;20390;-65
2024/05/01 03:39:29;;;;;;;;;;;12.10;99.90;;;;;;5351942;26;19930;-65
2024/05/01 03:41:55;;;;;;;;;;;12.00;99.90;;;;;;5345638;26;19937;-65
2024/05/01 03:44:21;;;;;;;;;;;12.00;99.90;;;;;;5372002;26;20003;-66
2024/05/01 03:46:47;;;;;;;;;;;12.30;99.90;;;;;;5356507;26;19937;-65
2024/05/01 03:49:12;;;;;;;;;;;12.00;99.90;;;;;;5358752;26;19953;-65
2024/05/01 03:51:39;;;;;;;;;;;11.90;99.90;;;;;;5352602;26;19934;-65
2024/05/01 03:54:05;;;;;;;;;;;11.90;99.90;;;;;;5363947;26;19936;-65
2024/05/01 03:56:31;;;;;;;;;;;11.80;99.90;;;;;;5371130;26;19930;-65
2024/05/01 03:59:09;;;;;;;;;;;11.80;99.90;;;;;;5347918;26;19937;-65
2024/05/01 04:01:38;;;;;;;;;;;11.80;99.90;;;;;;5355863;26;19937;-65
2024/05/01 04:04:06;;;;;;;;;;;11.80;99.90;;;;;;5361659;26;19962;-65
2024/05/01 04:06:36;;;;;;;;;;;11.80;99.90;;;;;;5362876;26;19952;-65
2024/05/01 04:09:02;;;;;;;;;;;11.70;99.90;;;;;;5367004;26;20354;-65
2024/05/01 04:11:28;;;;;;;;;;;11.80;99.90;;;;;;5352453;26;19936;-65
2024/05/01 04:13:53;;;;;;;;;;;11.80;99.90;;;;;;5363996;26;19937;-66
2024/05/01 04:16:19;;;;;;;;;;;11.80;99.90;;;;;;5361945;26;19962;-65
2024/05/01 04:18:44;;;;;;;;;;;11.80;99.90;;;;;;5356428;26;19930;-65
2024/05/01 04:21:10;;;;;;;;;;;11.90;99.90;;;;;;5340525;26;19946;-65
2024/05/01 04:23:36;;;;;;;;;;;11.90;99.90;;;;;;5340404;26;20783;-65
2024/05/01 04:26:01;;;;;;;;;;;12.10;99.90;;;;;;5345695;26;19937;-65
2024/05/01 04:28:27;;;;;;;;;;;13.00;99.90;;;;;;5357260;26;20329;-65
2024/05/01 04:30:52;;;;;;;;;;;12.40;99.90;;;;;;5344597;26;19930;-65
2024/05/01 04:33:18;;;;;;;;;;;12.40;99.90;;;;;;5373691;26;19929;-65
2024/05/01 04:35:46;;;;;;;;;;;12.90;99.90;;;;;;5346584;26;19957;-65
2024/05/01 04:38:11;;;;;;;;;;;12.40;99.90;;;;;;5356848;26;19942;-65
2024/05/01 04:40:37;;;;;;;;;;;12.40;99.90;;;;;;5372076;26;20330;-66
2024/05/01 04:43:03;;;;;;;;;;;12.50;99.90;;;;;;5366817;26;20232;-65
2024/05/01 04:45:29;;;;;;;;;;;12.60;99.90;;;;;;5340401;26;20044;-66
2024/05/01 04:47:55;;;;;;;;;;;12.80;99.90;;;;;;5343779;26;19937;-66
2024/05/01 04:50:20;;;;;;;;;;;12.90;99.90;;;;;;5356518;26;20267;-65
2024/05/01 04:52:46;;;;;;;;;;;13.00;99.90;;;;;;5351226;26;19937;-65
2024/05/01 04:55:12;;;;;;;;;;;13.30;99.90;;;;;;5357806;26;20320;-67
2024/05/01 04:57:38;;;;;;;;;;;13.60;99.90;;;;;;5346753;26;19940;-66
2024/05/01 05:00:04;;;;;;;;;;;13.90;99.90;;;;;;5358486;26;19933;-67
2024/05/01 05:02:30;;;;;;;;;;;14.00;99.90;;;;;;5329499;26;19941;-67
2024/05/01 05:04:55;;;;;;;;;;;14.20;99.90;;;;;;5360947;26;19961;-67
2024/05/01 05:07:21;;;;;;;;;;;14.40;99.90;;;;;;5357653;26;19938;-67
2024/05/01 05:09:46;;;;;;;;;;;14.50;99.90;;;;;;5372314;26;19929;-67
2024/05/01 05:12:12;;;;;;;;;;;14.80;99.90;;;;;;5367412;26;19957;-67
2024/05/01 05:14:38;;;;;;;;;;;15.10;99.90;;;;;;5370585;26;19930;-67
2024/05/01 05:17:03;;;;;;;;;;;15.70;99.90;;;;;;5370672;26;19969;-67
2024/05/01 05:19:29;;;;;;;;;;;16.10;99.90;;;;;;5363978;26;19938;-68
2024/05/01 05:21:55;;;;;;;;;;;16.50;99.90;;;;;;5359162;26;19937;-67
2024/05/01 05:24:21;;;;;;;;;;;16.80;99.90;;;;;;5363530;26;19938;-67
2024/05/01 05:26:48;;;;;;;;;;;17.20;99.90;;;;;;5371063;26;19936;-67
2024/05/01 05:29:13;;;;;;;;;;;17.40;99.90;;;;;;5335174;26;19930;-67
2024/05/01 05:31:42;;;;;;;;;;;17.50;99.90;;;;;;5345552;26;19930;-68
2024/05/01 05:34:08;;;;;;;;;;;17.40;99.90;;;;;;5331652;26;19937;-67
2024/05/01 05:36:34;;;;;;;;;;;17.30;99.90;;;;;;5348909;26;19934;-67
2024/05/01 05:39:01;;;;;;;;;;;17.00;99.90;;;;;;5353137;26;19940;-67
2024/05/01 05:41:27;;;;;;;;;;;16.80;99.90;;;;;;5373003;26;19937;-68
2024/05/01 05:43:53;;;;;;;;;;;16.60;99.90;;;;;;5370494;26;19929;-68
2024/05/01 05:46:18;;;;;;;;;;;16.50;99.90;;;;;;5360914;26;19937;-68
2024/05/01 05:48:44;;;;;;;;;;;16.30;99.90;;;;;;5375134;26;19930;-67
2024/05/01 05:51:09;;;;;;;;;;;16.20;99.90;;;;;;5359727;26;19930;-68
2024/05/01 05:53:37;;;;;;;;;;;16.10;99.90;;;;;;5368096;26;19937;-67
2024/05/01 05:56:05;;;;;;;;;;;16.10;99.90;;;;;;5373756;26;19981;-67
2024/05/01 05:58:31;;;;;;;;;;;15.90;99.90;;;;;;5370648;26;19940;-69
2024/05/01 06:00:57;;;;;;;;;;;15.80;99.90;;;;;;5367623;26;19941;-68
2024/05/01 06:03:22;;;;;;;;;;;15.70;99.90;;;;;;5339911;26;19930;-67
2024/05/01 06:05:48;;;;;;;;;;;15.60;99.90;;;;;;5368889;26;19978;-67
2024/05/01 06:08:14;;;;;;;;;;;15.50;99.90;;;;;;5369473;26;19929;-68
2024/05/01 06:10:39;;;;;;;;;;;15.40;99.90;;;;;;5349428;26;20366;-67
2024/05/01 06:13:07;;;;;;;;;;;15.40;99.90;;;;;;5367806;26;19944;-67
2024/05/01 06:15:32;;;;;;;;;;;15.20;99.90;;;;;;5354393;26;19929;-67
2024/05/01 06:17:58;;;;;;;;;;;15.20;99.90;;;;;;5368055;26;19999;-67
2024/05/01 06:20:24;;;;;;;;;;;15.20;99.90;;;;;;5369827;26;19937;-68
2024/05/01 06:22:49;;;;;;;;;;;15.30;99.90;;;;;;5345991;26;19969;-67
2024/05/01 06:25:15;;;;;;;;;;;15.40;99.90;;;;;;5364188;26;19930;-67
2024/05/01 06:27:40;;;;;;;;;;;15.40;99.90;;;;;;5347501;26;20366;-67
2024/05/01 06:30:06;;;;;;;;;;;15.50;99.90;;;;;;5357025;26;19934;-67
2024/05/01 06:32:31;;;;;;;;;;;15.80;99.90;;;;;;5361510;26;19929;-68
2024/05/01 06:34:57;;;;;;;;;;;16.20;99.90;;;;;;5365023;26;20001;-68
2024/05/01 06:37:23;;;;;;;;;;;16.90;99.90;;;;;;5352050;26;19977;-68
2024/05/01 06:39:48;;;;;;;;;;;17.50;99.90;;;;;;5349044;26;19930;-68
2024/05/01 06:42:14;;;;;;;;;;;17.60;99.90;;;;;;5374496;26;19929;-68
2024/05/01 06:44:39;;;;;;;;;;;17.40;99.90;;;;;;5342179;26;19999;-68
2024/05/01 06:47:05;;;;;;;;;;;17.30;99.90;;;;;;5329879;26;20278;-68
2024/05/01 06:49:30;;;;;;;;;;;17.10;99.90;;;;;;5374871;26;19930;-68
2024/05/01 06:51:56;;;;;;;;;;;16.90;99.90;;;;;;5359532;26;19930;-68
2024/05/01 06:54:22;;;;;;;;;;;16.60;99.90;;;;;;5354961;26;19938;-68
2024/05/01 06:56:47;;;;;;;;;;;16.50;99.90;;;;;;5349200;26;19944;-68
2024/05/01 06:59:13;;;;;;;;;;;16.20;99.90;;;;;;5353433;26;20254;-68
2024/05/01 07:01:39;;;;;;;;;;;16.20;99.90;;;;;;5355697;26;20000;-68
2024/05/01 07:04:05;;;;;;;;;;;16.30;99.90;;;;;;5356977;26;19936;-68
2024/05/01 07:06:35;;;;;;;;;;;16.90;99.90;;;;;;5373278;26;19942;-68
2024/05/01 07:09:01;;;;;;;;;;;17.70;99.90;;;;;;5370976;26;20381;-68
2024/05/01 07:11:26;;;;;;;;;;;18.90;99.90;;;;;;5371232;26;19937;-69
2024/05/01 07:13:52;;;;;;;;;;;20.40;99.90;;;;;;5373568;26;19942;-68
2024/05/01 07:16:18;;;;;;;;;;;21.60;99.90;;;;;;5369830;26;19930;-68
2024/05/01 07:18:43;;;;;;;;;;;22.40;99.90;;;;;;5369405;26;19938;-69
2024/05/01 07:21:09;;;;;;;;;;;23.10;99.90;;;;;;5367646;26;19940;-69
2024/05/01 07:23:34;;;;;;;;;;;23.70;99.90;;;;;;5343148;26;19929;-69
2024/05/01 07:26:00;;;;;;;;;;;24.40;99.90;;;;;;5363690;26;19930;-69
2024/05/01 07:28:25;;;;;;;;;;;25.10;99.90;;;;;;5360776;26;19936;-69
2024/05/01 07:30:51;;;;;;;;;;;25.50;99.90;;;;;;5353864;26;19937;-69
2024/05/01 07:33:16;;;;;;;;;;;25.90;99.90;;;;;;5361259;26;19936;-70
2024/05/01 07:35:42;;;;;;;;;;;26.10;99.90;;;;;;5370113;26;20059;-70
2024/05/01 07:38:11;;;;;;;;;;;26.40;99.90;;;;;;5374843;26;19942;-70
2024/05/01 07:40:37;;;;;;;;;;;26.70;99.90;;;;;;5355911;26;20389;-70
2024/05/01 07:43:03;;;;;;;;;;;27.00;99.90;;;;;;5369207;26;19959;-70
2024/05/01 07:45:31;;;;;;;;;;;27.40;99.90;;;;;;5360992;26;20385;-70
2024/05/01 07:47:57;;;;;;;;;;;27.60;99.90;;;;;;5356039;26;20366;-71
2024/05/01 07:50:23;;;;;;;;;;;27.60;99.90;;;;;;5358379;26;19930;-71
2024/05/01 07:52:48;;;;;;;;;;;27.60;99.90;;;;;;5371760;26;19930;-70
2024/05/01 07:55:14;;;;;;;;;;;27.60;99.90;;;;;;5361847;26;19936;-70
2024/05/01 07:57:40;;;;;;;;;;;27.50;99.90;;;;;;5368329;26;19929;-70
2024/05/01 08:00:08;;;;;;;;;;;27.40;99.90;;;;;;5360414;26;19940;-70
2024/05/01 08:02:33;;;;;;;;;;;27.20;99.90;;;;;;5366573;26;20153;-70
2024/05/01 08:04:59;;;;;;;;;;;27.20;99.90;;;;;;5343416;26;19936;-71
2024/05/01 08:07:25;;;;;;;;;;;27.10;99.90;;;;;;5361548;26;20722;-70
2024/05/01 08:09:50;;;;;;;;;;;27.20;99.90;;;;;;5368096;26;19929;-70
2024/05/01 08:12:16;;;;;;;;;;;27.10;99.90;;;;;;5367685;26;19936;-71
2024/05/01 08:14:42;;;;;;;;;;;27.00;99.90;;;;;;5338478;26;19930;-71
2024/05/01 08:17:07;;;;;;;;;;;26.90;99.90;;;;;;5366505;26;20369;-71
2024/05/01 08:19:33;;;;;;;;;;;27.00;99.90;;;;;;5366938;26;19936;-70
2024/05/01 08:22:00;;;;;;;;;;;27.00;99.90;;;;;;5366125;26;19933;-71
2024/05/01 08:24:25;;;;;;;;;;;27.00;99.90;;;;;;5359456;26;19937;-71
2024/05/01 08:26:51;;;;;;;;;;;26.80;99.90;;;;;;5367575;26;19930;-71
2024/05/01 08:29:18;;;;;;;;;;;26.60;99.90;;;;;;5367709;26;20266;-70
2024/05/01 08:31:43;;;;;;;;;;;26.60;99.90;;;;;;5356392;26;20278;-70
2024/05/01 08:34:09;;;;;;;;;;;26.80;99.90;;;;;;5359242;26;19936;-70
2024/05/01 08:36:34;;;;;;;;;;;26.80;99.80;;;;;;5352812;26;20070;-70
2024/05/01 08:39:00;;;;;;;;;;;26.80;99.90;;;;;;5367105;26;19937;-71
2024/05/01 08:41:26;;;;;;;;;;;26.80;99.90;;;;;;5364649;26;20003;-70
2024/05/01 08:43:53;;;;;;;;;;;27.10;99.90;;;;;;5357053;26;20263;-71
2024/05/01 08:46:19;;;;;;;;;;;27.20;99.90;;;;;;5376054;26;20474;-71
2024/05/01 08:48:46;;;;;;;;;;;27.30;99.90;;;;;;5361040;26;19934;-70
2024/05/01 08:51:12;;;;;;;;;;;27.30;99.90;;;;;;5359332;26;19937;-70
2024/05/01 08:53:40;;;;;;;;;;;27.50;99.90;;;;;;5376930;26;19974;-70
2024/05/01 08:56:06;;;;;;;;;;;27.70;99.90;;;;;;5361690;26;19936;-70
2024/05/01 08:58:32;;;;;;;;;;;27.80;99.90;;;;;;5348942;26;19974;-71
2024/05/01 09:01:00;;;;;;;;;;;27.90;99.90;;;;;;5347067;26;19937;-70
2024/05/01 09:03:26;;;;;;;;;;;28.00;99.90;;;;;;5366721;26;19969;-70
2024/05/01 09:05:53;;;;;;;;;;;28.10;99.90;;;;;;5371358;26;19990;-70
2024/05/01 09:08:19;;;;;;;;;;;28.40;99.90;;;;;;5325964;26;20207;-70
2024/05/01 09:10:45;;;;;;;;;;;28.70;99.90;;;;;;5357870;26;19930;-70
2024/05/01 09:13:11;;;;;;;;;;;28.60;99.00;;;;;;5376296;26;20378;-70
2024/05/01 09:15:37;;;;;;;;;;;28.60;99.90;;;;;;5355435;26;20393;-70
2024/05/01 09:18:09;;;;;;;;;;;28.60;99.50;;;;;;5355231;26;19999;-70
2024/05/01 09:20:35;;;;;;;;;;;28.70;99.40;;;;;;5362969;26;20019;-71
2024/05/01 09:23:01;;;;;;;;;;;28.50;98.60;;;;;;5342153;26;20259;-71
2024/05/01 09:25:26;;;;;;;;;;;28.30;98.40;;;;;;5357365;26;19930;-71
2024/05/01 09:27:54;;;;;;;;;;;28.10;99.10;;;;;;5353909;26;19996;-71
2024/05/01 09:30:19;;;;;;;;;;;28.10;99.90;;;;;;5353911;26;19930;-70
2024/05/01 09:32:45;;;;;;;;;;;27.90;98.10;;;;;;5349375;26;20314;-71
2024/05/01 09:35:11;;;;;;;;;;;27.90;99.90;;;;;;5376330;26;19940;-71
2024/05/01 09:37:38;;;;;;;;;;;28.00;99.50;;;;;;5372779;26;19930;-71
2024/05/01 09:40:04;;;;;;;;;;;28.10;98.70;;;;;;5373633;26;20539;-71
2024/05/01 09:42:33;;;;;;;;;;;28.20;99.60;;;;;;5370639;26;19937;-71
2024/05/01 09:45:00;;;;;;;;;;;28.30;99.50;;;;;;5344821;26;19930;-71
2024/05/01 09:47:32;;;;;;;;;;;28.20;98.30;;;;;;5366922;26;19933;-71
2024/05/01 09:50:01;;;;;;;;;;;28.10;99.30;;;;;;5372626;26;19930;-71
2024/05/01 09:52:27;;;;;;;;;;;28.10;99.90;;;;;;5360451;26;19941;-71
2024/05/01 09:54:54;;;;;;;;;;;28.20;99.90;;;;;;5349445;26;20359;-71
2024/05/01 09:57:21;;;;;;;;;;;28.20;99.80;;;;;;5352134;26;19942;-70
2024/05/01 09:59:48;;;;;;;;;;;28.20;98.80;;;;;;5360428;26;20092;-70
2024/05/01 10:02:17;;;;;;;;;;;28.20;99.70;;;;;;5340733;26;19984;-70
2024/05/01 10:04:42;;;;;;;;;;;28.30;99.90;;;;;;5356811;26;19942;-70
2024/05/01 10:07:08;;;;;;;;;;;28.20;98.80;;;;;;5368169;26;20276;-70
2024/05/01 10:09:34;;;;;;;;;;;28.20;99.10;;;;;;5374450;26;20373;-70
2024/05/01 10:12:02;;;;;;;;;;;28.20;98.70;;;;;;5363133;26;19930;-70
2024/05/01 10:14:27;;;;;;;;;;;28.10;98.90;;;;;;5347122;26;19942;-71
2024/05/01 10:16:53;;;;;;;;;;;28.10;99.70;;;;;;5367331;26;20269;-69
2024/05/01 10:19:20;;;;;;;;;;;28.20;99.90;;;;;;5361278;26;19974;-69
2024/05/01 10:21:58;;;;;;;;;;;28.20;99.50;;;;;;5364760;26;19930;-70
2024/05/01 10:24:24;;;;;;;;;;;28.10;98.20;;;;;;5365708;26;20388;-70
2024/05/01 10:26:52;;;;;;;;;;;28.00;98.80;;;;;;5365426;26;19954;-69
2024/05/01 10:29:18;;;;;;;;;;;27.80;99.10;;;;;;5363629;26;19933;-69
2024/05/01 10:31:44;;;;;;;;;;;27.80;98.90;;;;;;5372340;26;19937;-69
2024/05/01 10:34:18;;;;;;;;;;;27.60;97.80;;;;;;5361121;26;19942;-69
2024/05/01 10:36:43;;;;;;;;;;;27.40;97.50;;;;;;5352229;26;19937;-69
2024/05/01 10:39:09;;;;;;;;;;;27.20;98.30;;;;;;5360730;26;19934;-69
2024/05/01 10:41:36;;;;;;;;;;;27.00;98.10;;;;;;5358923;26;20377;-69
2024/05/01 10:44:09;;;;;;;;;;;26.90;98.20;;;;;;5360055;26;20334;-68
2024/05/01 10:46:35;;;;;;;;;;;26.80;98.80;;;;;;5360496;26;19930;-69
2024/05/01 10:49:01;;;;;;;;;;;26.80;98.30;;;;;;5364627;26;19937;-69
2024/05/01 10:51:26;;;;;;;;;;;26.80;99.40;;;;;;5361522;26;19930;-68
2024/05/01 10:53:52;;;;;;;;;;;26.80;99.30;;;;;;5369778;26;19941;-68
2024/05/01 10:58:50;;;;;;;;;;;26.70;99.60;;;;;;5405882;26;20197;-64
2024/05/01 11:01:16;;;;;;;;;;;26.70;98.70;;;;;;5400578;26;20373;-64
2024/05/01 11:03:43;;;;;;;;;;;26.70;99.60;;;;;;5411036;26;19941;-65
2024/05/01 11:06:09;;;;;;;;;;;26.70;99.80;;;;;;5410153;26;20002;-64
2024/05/01 11:08:35;;;;;;;;;;;26.70;99.90;;;;;;5405007;26;19929;-65
2024/05/01 11:11:00;;;;;;;;;;;26.50;99.90;;;;;;5412531;26;20025;-64
2024/05/01 11:13:27;;;;;;;;;;;26.60;99.90;;;;;;5421452;26;19935;-65
2024/05/01 11:15:53;;;;;;;;;;;26.60;99.30;;;;;;5410308;26;19936;-64
2024/05/01 11:18:19;;;;;;;;;;;26.40;99.00;;;;;;5412231;26;19953;-64
2024/05/01 11:20:44;;;;;;;;;;;26.40;99.40;;;;;;5406072;26;20283;-64
2024/05/01 11:23:10;;;;;;;;;;;26.40;99.60;;;;;;5410092;26;20006;-65
2024/05/01 11:25:36;;;;;;;;;;;26.40;99.90;;;;;;5406428;26;19929;-64
2024/05/01 11:28:01;;;;;;;;;;;26.60;99.90;;;;;;5409188;26;19936;-65
2024/05/01 11:30:27;;;;;;;;;;;26.80;99.90;;;;;;5410464;26;20350;-64
2024/05/01 11:32:53;;;;;;;;;;;26.90;98.40;;;;;;5408093;26;19945;-64
2024/05/01 11:35:19;;;;;;;;;;;27.00;99.90;;;;;;5405978;26;19936;-65
2024/05/01 11:37:45;;;;;;;;;;;26.80;99.80;;;;;;5410351;26;19929;-64
2024/05/01 11:40:17;;;;;;;;;;;26.70;99.90;;;;;;5413131;26;19929;-64
2024/05/01 11:42:43;;;;;;;;;;;26.70;99.90;;;;;;5400476;26;19929;-64
2024/05/01 11:45:08;;;;;;;;;;;26.70;99.00;;;;;;5408759;26;19929;-65
2024/05/01 11:47:34;;;;;;;;;;;26.50;99.80;;;;;;5409996;26;20253;-65
2024/05/01 11:50:00;;;;;;;;;;;26.40;99.90;;;;;;5409288;26;19929;-65
2024/05/01 11:52:26;;;;;;;;;;;26.50;99.90;;;;;;5395836;26;19999;-64
2024/05/01 11:54:51;;;;;;;;;;;26.70;99.90;;;;;;5409129;26;19929;-64
2024/05/01 11:57:17;;;;;;;;;;;26.90;99.90;;;;;;5409712;26;20310;-65
2024/05/01 11:59:42;;;;;;;;;;;27.00;99.80;;;;;;5408333;26;20008;-65
2024/05/01 12:02:09;;;;;;;;;;;27.10;99.90;;;;;;5409094;26;19929;-65
2024/05/01 12:04:36;;;;;;;;;;;27.30;99.90;;;;;;5409521;26;19957;-64
2024/05/01 12:07:14;;;;;;;;;;;27.50;99.30;;;;;;5406745;26;19937;-65
2024/05/01 12:09:42;;;;;;;;;;;27.70;99.90;;;;;;5407910;26;20426;-65
2024/05/01 12:12:10;;;;;;;;;;;27.90;99.10;;;;;;5408429;26;19978;-64
2024/05/01 12:14:36;;;;;;;;;;;28.00;98.80;;;;;;5406773;26;19929;-64
2024/05/01 12:17:01;;;;;;;;;;;28.20;99.20;;;;;;5408971;26;20376;-65
2024/05/01 12:19:27;;;;;;;;;;;28.40;98.90;;;;;;5414428;26;20041;-65
2024/05/01 12:21:53;;;;;;;;;;;28.50;98.90;;;;;;5412408;26;19929;-65
2024/05/01 12:24:19;;;;;;;;;;;28.50;97.80;;;;;;5409078;26;20510;-65
2024/05/01 12:26:45;;;;;;;;;;;28.60;98.70;;;;;;5411331;26;19936;-64
2024/05/01 12:29:17;;;;;;;;;;;28.70;99.00;;;;;;5412284;26;19929;-64
2024/05/01 12:31:43;;;;;;;;;;;28.80;98.20;;;;;;5411342;26;19957;-65
2024/05/01 12:34:24;;;;;;;;;;;28.90;98.40;;;;;;5440301;26;19940;-65
2024/05/01 12:36:49;;;;;;;;;;;28.90;96.00;;;;;;5412075;26;20449;-65
2024/05/01 12:39:25;;;;;;;;;;;28.80;97.60;;;;;;5412531;26;19929;-65
2024/05/01 12:41:51;;;;;;;;;;;28.70;96.70;;;;;;5406769;26;20254;-65
2024/05/01 12:44:17;;;;;;;;;;;28.50;96.10;;;;;;5401412;26;19935;-65
2024/05/01 12:46:43;;;;;;;;;;;28.40;96.00;;;;;;5412817;26;20298;-65
2024/05/01 12:49:09;;;;;;;;;;;28.00;96.40;;;;;;5412115;26;19974;-64
2024/05/01 12:51:34;;;;;;;;;;;27.60;97.90;;;;;;5411027;26;19933;-65
2024/05/01 12:54:03;;;;;;;;;;;27.50;98.80;;;;;;5411677;26;20351;-65
2024/05/01 12:56:34;;;;;;;;;;;27.60;99.90;;;;;;5412539;26;19929;-65
2024/05/01 12:59:01;;;;;;;;;;;27.70;99.90;;;;;;5412091;26;19976;-65
2024/05/01 13:01:27;;;;;;;;;;;28.00;99.50;;;;;;5400146;26;20292;-65
2024/05/01 13:03:54;;;;;;;;;;;28.30;98.80;;;;;;5411363;26;19940;-65
2024/05/01 13:06:21;;;;;;;;;;;28.50;97.40;;;;;;5412129;26;19935;-65
2024/05/01 13:08:46;;;;;;;;;;;28.60;96.30;;;;;;5412751;26;19936;-65
2024/05/01 13:11:15;;;;;;;;;;;28.60;96.70;;;;;;5408054;26;19929;-66
2024/05/01 13:13:42;;;;;;;;;;;28.80;96.70;;;;;;5412330;26;19929;-65
2024/05/01 13:16:28;;;;;;;;;;;29.00;96.40;;;;;;5411680;26;19941;-64
2024/05/01 13:18:53;;;;;;;;;;;29.20;95.40;;;;;;5369375;26;19929;-65
2024/05/01 13:21:20;;;;;;;;;;;29.20;94.80;;;;;;5400756;26;19929;-65
2024/05/01 13:23:45;;;;;;;;;;;28.90;94.90;;;;;;5412412;26;19928;-65
2024/05/01 13:26:18;;;;;;;;;;;28.60;94.40;;;;;;5411491;26;20092;-65
2024/05/01 13:28:43;;;;;;;;;;;28.40;96.30;;;;;;5406307;26;19997;-65
2024/05/01 13:31:19;;;;;;;;;;;28.50;94.90;;;;;;5410810;26;19937;-65
2024/05/01 13:33:45;;;;;;;;;;;28.40;94.60;;;;;;5434234;26;20001;-65
2024/05/01 13:36:15;;;;;;;;;;;28.40;94.60;;;;;;5411144;26;20381;-65
2024/05/01 13:38:41;;;;;;;;;;;28.50;94.90;;;;;;5404378;26;19941;-65
2024/05/01 13:41:07;;;;;;;;;;;28.60;95.00;;;;;;5411727;26;20003;-65
2024/05/01 13:43:34;;;;;;;;;;;28.50;93.90;;;;;;5400418;26;19940;-65
2024/05/01 13:46:01;;;;;;;;;;;28.50;93.50;;;;;;5411651;26;20344;-65
2024/05/01 13:48:36;;;;;;;;;;;28.40;93.30;;;;;;5412313;26;20002;-65
2024/05/01 13:51:03;;;;;;;;;;;28.60;95.10;;;;;;5402291;26;19929;-66
2024/05/01 13:53:29;;;;;;;;;;;28.80;95.00;;;;;;5410588;26;19936;-66
2024/05/01 13:55:58;;;;;;;;;;;28.90;93.30;;;;;;5411488;26;19936;-66
2024/05/01 13:58:23;;;;;;;;;;;29.10;94.90;;;;;;5412380;26;20384;-65
2024/05/01 14:00:49;;;;;;;;;;;29.20;93.90;;;;;;5409447;26;19991;-65
2024/05/01 14:03:27;;;;;;;;;;;29.30;94.80;;;;;;5412663;26;20285;-65
2024/05/01 14:05:54;;;;;;;;;;;29.50;92.80;;;;;;5411347;26;19937;-66
2024/05/01 14:08:39;;;;;;;;;;;29.60;94.00;;;;;;5406804;26;19995;-66
2024/05/01 14:11:04;;;;;;;;;;;29.60;92.60;;;;;;5408699;26;19937;-66
2024/05/01 14:13:33;;;;;;;;;;;29.60;94.30;;;;;;5411911;26;19961;-66
2024/05/01 14:15:58;;;;;;;;;;;29.60;92.20;;;;;;5405324;26;19929;-66